Time;durP1;ratioP1;P1;durP2;ratioP2;P2;SDS_P1;SDS_P2;PMS_P1;PMS_P2;Temp;Humidity;BMP_temperature;BMP_pressure;BME280_temperature;BME280_humidity;BME280_pressure;Samples;Min_cycle;Max_cycle;Signal;HPM_P1;HPM_P2
2021/09/18 00:00:07;;;;;;;5.57;5.00;;;18.40;99.90;;;;;;5045643;28;20215;-62
2021/09/18 00:02:33;;;;;;;7.37;6.67;;;18.40;99.90;;;;;;5043567;28;20618;-62
2021/09/18 00:04:59;;;;;;;6.17;5.30;;;18.30;99.90;;;;;;5042367;28;20549;-62
2021/09/18 00:07:24;;;;;;;7.30;5.80;;;18.50;99.90;;;;;;5045460;28;20541;-62
2021/09/18 00:09:50;;;;;;;6.13;5.63;;;18.40;99.90;;;;;;5044106;28;20681;-62
2021/09/18 00:12:16;;;;;;;6.00;5.50;;;18.40;99.90;;;;;;5043955;28;20286;-62
2021/09/18 00:14:41;;;;;;;7.27;5.57;;;18.30;99.90;;;;;;5027747;28;20215;-61
2021/09/18 00:17:08;;;;;;;5.57;5.13;;;18.40;99.90;;;;;;5042146;28;20796;-61
2021/09/18 00:19:34;;;;;;;6.27;5.67;;;18.40;99.90;;;;;;5026883;28;20296;-61
2021/09/18 00:22:00;;;;;;;5.90;5.40;;;18.20;99.90;;;;;;5044130;28;20552;-61
2021/09/18 00:24:26;;;;;;;7.90;5.53;;;18.00;99.90;;;;;;5042982;28;20597;-62
2021/09/18 00:26:51;;;;;;;6.67;6.07;;;18.10;99.90;;;;;;5044048;28;20230;-62
2021/09/18 00:29:17;;;;;;;6.17;5.63;;;18.10;99.90;;;;;;5044539;28;20297;-62
2021/09/18 00:31:43;;;;;;;6.70;6.20;;;17.90;99.90;;;;;;5043725;28;20687;-62
2021/09/18 00:34:09;;;;;;;6.13;5.53;;;17.90;99.90;;;;;;5044239;28;20203;-62
2021/09/18 00:36:34;;;;;;;5.50;5.00;;;17.90;99.90;;;;;;5042135;28;20976;-62
2021/09/18 00:39:00;;;;;;;6.50;5.90;;;17.80;99.90;;;;;;5044957;28;20546;-62
2021/09/18 00:41:26;;;;;;;6.00;5.40;;;17.80;99.90;;;;;;5046422;28;20204;-62
2021/09/18 00:43:53;;;;;;;8.67;7.60;;;18.00;99.90;;;;;;5043376;28;20690;-61
2021/09/18 00:46:19;;;;;;;7.30;6.40;;;18.10;99.90;;;;;;5043711;28;20208;-62
2021/09/18 00:48:45;;;;;;;7.47;6.00;;;18.00;99.90;;;;;;5044237;28;20489;-62
2021/09/18 00:51:11;;;;;;;7.23;6.30;;;18.10;99.90;;;;;;5044045;28;20495;-63
2021/09/18 00:53:38;;;;;;;7.13;6.43;;;18.20;99.90;;;;;;5042856;28;20430;-62
2021/09/18 00:56:05;;;;;;;9.90;6.80;;;18.10;99.90;;;;;;5044113;28;21019;-62
2021/09/18 00:58:31;;;;;;;7.30;6.60;;;18.00;99.90;;;;;;5043311;28;20434;-62
2021/09/18 01:00:57;;;;;;;7.67;6.17;;;18.00;99.90;;;;;;5041744;28;20948;-62
2021/09/18 01:03:22;;;;;;;7.40;6.70;;;17.90;99.90;;;;;;5039889;28;20430;-62
2021/09/18 01:05:48;;;;;;;6.97;6.30;;;18.00;99.90;;;;;;5041420;28;20191;-61
2021/09/18 01:08:14;;;;;;;6.30;5.70;;;18.00;99.90;;;;;;5043815;28;20248;-61
2021/09/18 01:10:40;;;;;;;6.13;5.53;;;18.00;99.90;;;;;;5041929;28;20442;-61
2021/09/18 01:13:12;;;;;;;6.27;5.67;;;17.90;99.90;;;;;;5042018;28;20199;-61
2021/09/18 01:15:39;;;;;;;6.37;5.77;;;17.90;99.90;;;;;;5047229;28;20207;-61
2021/09/18 01:18:07;;;;;;;5.80;5.30;;;17.90;99.90;;;;;;5049046;28;20534;-61
2021/09/18 01:20:34;;;;;;;9.20;6.37;;;17.80;99.90;;;;;;5044821;28;21420;-61
2021/09/18 01:23:01;;;;;;;6.50;5.87;;;17.80;99.90;;;;;;5047499;28;20512;-62
2021/09/18 01:25:30;;;;;;;6.10;5.57;;;17.50;99.90;;;;;;5046270;28;20440;-61
2021/09/18 01:27:56;;;;;;;6.30;5.70;;;17.60;99.90;;;;;;5048563;28;20470;-61
2021/09/18 01:30:25;;;;;;;7.33;6.63;;;17.60;99.90;;;;;;5046088;28;20442;-62
2021/09/18 01:32:52;;;;;;;8.10;6.37;;;17.60;99.90;;;;;;5046235;28;20423;-61
2021/09/18 01:35:18;;;;;;;7.80;7.10;;;17.50;99.90;;;;;;5046114;28;20422;-62
2021/09/18 01:37:46;;;;;;;6.33;5.53;;;17.40;99.90;;;;;;5047256;28;20473;-62
2021/09/18 01:40:21;;;;;;;6.90;6.30;;;17.30;99.90;;;;;;5048431;28;20433;-61
2021/09/18 01:42:47;;;;;;;6.67;6.07;;;17.30;99.90;;;;;;5047245;28;20434;-62
2021/09/18 01:45:15;;;;;;;6.50;5.90;;;17.40;99.90;;;;;;5046510;28;20484;-61
2021/09/18 01:47:52;;;;;;;7.40;6.70;;;17.50;99.90;;;;;;5045682;28;20583;-61
2021/09/18 01:50:35;;;;;;;7.03;6.07;;;17.40;99.90;;;;;;5047050;28;20454;-63
2021/09/18 01:53:04;;;;;;;7.47;6.80;;;17.30;99.90;;;;;;5045969;28;20424;-61
2021/09/18 01:55:30;;;;;;;6.37;5.80;;;17.20;99.90;;;;;;5044232;28;20612;-61
2021/09/18 01:57:57;;;;;;;6.80;6.10;;;17.30;99.90;;;;;;5047771;28;20464;-62
2021/09/18 02:00:24;;;;;;;7.70;6.30;;;17.40;99.90;;;;;;5027840;28;20188;-61
2021/09/18 02:02:50;;;;;;;8.30;5.63;;;17.30;99.90;;;;;;5027454;28;20952;-62
2021/09/18 02:05:19;;;;;;;6.10;5.50;;;17.10;99.90;;;;;;5047087;28;20641;-62
2021/09/18 02:07:45;;;;;;;6.97;6.37;;;17.20;99.90;;;;;;5043642;28;20477;-62
2021/09/18 02:10:14;;;;;;;8.90;6.93;;;17.00;99.90;;;;;;5047568;28;20910;-62
2021/09/18 02:12:40;;;;;;;7.47;6.70;;;17.10;99.90;;;;;;5046435;28;20437;-62
2021/09/18 02:15:07;;;;;;;6.20;5.70;;;17.00;99.90;;;;;;5028338;28;20940;-62
2021/09/18 02:17:33;;;;;;;6.50;5.90;;;17.00;99.90;;;;;;5028936;28;20224;-62
2021/09/18 02:19:58;;;;;;;6.60;6.10;;;17.10;99.90;;;;;;5045771;28;20948;-60
2021/09/18 02:22:24;;;;;;;9.10;6.23;;;17.10;99.90;;;;;;5045714;28;20211;-61
2021/09/18 02:24:50;;;;;;;5.83;5.23;;;17.00;99.90;;;;;;5028090;28;20176;-61
2021/09/18 02:27:15;;;;;;;6.57;5.97;;;17.00;99.90;;;;;;5045118;28;20617;-62
2021/09/18 02:29:41;;;;;;;6.03;5.43;;;17.00;99.90;;;;;;5046165;28;20619;-62
2021/09/18 02:32:07;;;;;;;6.37;5.87;;;16.90;99.90;;;;;;5045684;28;20226;-61
2021/09/18 02:34:32;;;;;;;9.23;6.40;;;16.90;99.90;;;;;;5045867;28;20931;-61
2021/09/18 02:36:58;;;;;;;6.60;6.00;;;16.90;99.90;;;;;;5024564;28;20208;-61
2021/09/18 02:39:24;;;;;;;6.27;5.67;;;16.80;99.90;;;;;;5045481;28;20213;-61
2021/09/18 02:41:49;;;;;;;7.27;6.40;;;16.80;99.90;;;;;;5047918;28;20191;-62
2021/09/18 02:44:15;;;;;;;6.83;6.13;;;16.70;99.90;;;;;;5046326;28;20559;-61
2021/09/18 02:46:41;;;;;;;6.27;5.70;;;16.80;99.90;;;;;;5044898;28;20709;-62
2021/09/18 02:49:06;;;;;;;6.57;5.97;;;16.80;99.90;;;;;;5046294;28;20272;-62
2021/09/18 02:51:32;;;;;;;7.10;6.33;;;16.80;99.90;;;;;;5047068;28;20615;-61
2021/09/18 02:53:59;;;;;;;6.60;6.00;;;16.60;99.90;;;;;;5045414;28;20262;-61
2021/09/18 02:56:25;;;;;;;7.90;6.60;;;16.40;99.90;;;;;;5045481;28;20212;-62
2021/09/18 02:58:51;;;;;;;6.43;5.93;;;16.50;99.90;;;;;;5042523;28;20443;-61
2021/09/18 03:01:16;;;;;;;7.43;6.23;;;16.50;99.90;;;;;;5046799;28;20438;-62
2021/09/18 03:03:42;;;;;;;5.90;5.40;;;16.50;99.90;;;;;;5041886;28;20192;-62
2021/09/18 03:06:08;;;;;;;8.50;5.80;;;16.70;99.90;;;;;;5044525;28;20269;-62
2021/09/18 03:08:33;;;;;;;6.83;6.23;;;16.60;99.90;;;;;;5046090;28;20730;-63
2021/09/18 03:10:59;;;;;;;6.23;5.67;;;16.60;99.90;;;;;;5045644;28;20184;-61
2021/09/18 03:13:24;;;;;;;7.70;6.63;;;16.40;99.90;;;;;;5043124;28;20708;-62
2021/09/18 03:15:50;;;;;;;7.53;6.47;;;16.50;99.90;;;;;;5027774;28;20701;-61
2021/09/18 03:18:16;;;;;;;6.43;5.83;;;16.50;99.90;;;;;;5045679;28;20214;-62
2021/09/18 03:20:41;;;;;;;6.50;5.90;;;16.40;99.90;;;;;;5045917;28;20192;-62
2021/09/18 03:23:08;;;;;;;6.20;5.60;;;16.40;99.90;;;;;;5045263;28;20204;-62
2021/09/18 03:25:34;;;;;;;8.60;6.30;;;16.50;99.90;;;;;;5045011;28;20208;-61
2021/09/18 03:28:00;;;;;;;6.60;5.90;;;16.50;99.90;;;;;;5044717;28;20567;-61
2021/09/18 03:30:26;;;;;;;6.33;5.73;;;16.50;99.90;;;;;;5043284;28;20844;-61
2021/09/18 03:32:52;;;;;;;6.50;5.73;;;16.60;99.90;;;;;;5046148;28;20442;-60
2021/09/18 03:35:17;;;;;;;5.93;5.43;;;16.50;99.90;;;;;;5042937;28;20214;-62
2021/09/18 03:37:43;;;;;;;6.67;6.07;;;16.50;99.90;;;;;;5045101;28;20622;-61
2021/09/18 03:40:10;;;;;;;5.90;5.40;;;16.40;99.90;;;;;;5042339;28;20188;-61
2021/09/18 03:42:36;;;;;;;6.07;5.47;;;16.40;99.90;;;;;;5026536;28;20671;-62
2021/09/18 03:45:04;;;;;;;12.53;6.60;;;16.20;99.90;;;;;;5044984;28;20459;-62
2021/09/18 03:47:29;;;;;;;6.60;5.90;;;16.20;99.90;;;;;;5043410;28;20239;-62
2021/09/18 03:49:55;;;;;;;6.00;5.50;;;16.20;99.90;;;;;;5043621;28;20477;-62
2021/09/18 03:52:25;;;;;;;6.60;6.00;;;16.20;99.90;;;;;;5045598;28;20188;-62
2021/09/18 03:54:51;;;;;;;6.03;5.43;;;16.30;99.90;;;;;;5042883;28;20276;-61
2021/09/18 03:57:17;;;;;;;5.80;5.30;;;16.30;99.90;;;;;;5043788;28;20549;-63
2021/09/18 03:59:42;;;;;;;7.10;5.43;;;16.30;99.90;;;;;;5046154;28;20278;-61
2021/09/18 04:02:08;;;;;;;6.07;5.47;;;16.20;99.90;;;;;;5042397;28;20191;-61
2021/09/18 04:04:33;;;;;;;6.50;5.90;;;16.30;99.90;;;;;;5042577;28;20716;-62
2021/09/18 04:06:59;;;;;;;6.13;5.10;;;16.20;99.90;;;;;;5042579;28;20721;-61
2021/09/18 04:09:24;;;;;;;6.17;5.47;;;16.20;99.90;;;;;;5043702;28;20701;-62
2021/09/18 04:11:50;;;;;;;6.57;6.07;;;16.20;99.90;;;;;;5045439;28;20564;-62
2021/09/18 04:14:16;;;;;;;8.33;7.17;;;16.10;99.90;;;;;;5043269;28;20200;-62
2021/09/18 04:16:42;;;;;;;6.20;5.70;;;16.20;99.90;;;;;;5023608;28;20623;-62
2021/09/18 04:19:07;;;;;;;6.30;5.70;;;16.20;99.90;;;;;;5045220;28;20271;-63
2021/09/18 04:21:33;;;;;;;8.90;5.93;;;16.20;99.90;;;;;;5041460;28;20180;-62
2021/09/18 04:23:58;;;;;;;9.13;5.80;;;16.20;99.90;;;;;;5043688;28;20199;-63
2021/09/18 04:26:27;;;;;;;7.40;6.20;;;15.90;99.90;;;;;;5041815;28;20241;-62
2021/09/18 04:28:53;;;;;;;6.40;5.50;;;16.00;99.90;;;;;;5041353;28;20746;-63
2021/09/18 04:31:18;;;;;;;7.40;5.77;;;16.00;99.90;;;;;;5044510;28;20435;-62
2021/09/18 04:33:44;;;;;;;7.83;6.00;;;16.00;99.90;;;;;;5043770;28;20176;-62
2021/09/18 04:36:10;;;;;;;6.47;5.87;;;15.90;99.90;;;;;;5042020;28;20546;-62
2021/09/18 04:38:35;;;;;;;6.53;5.80;;;15.90;99.90;;;;;;5024880;28;20238;-62
2021/09/18 04:41:01;;;;;;;7.23;5.87;;;15.90;99.90;;;;;;5044303;28;20198;-62
2021/09/18 04:43:26;;;;;;;7.70;5.57;;;16.00;99.90;;;;;;5042885;28;20195;-62
2021/09/18 04:45:52;;;;;;;6.63;6.03;;;16.00;99.90;;;;;;5044169;28;20581;-62
2021/09/18 04:48:18;;;;;;;6.13;5.63;;;16.00;99.90;;;;;;5042658;28;20250;-62
2021/09/18 04:50:44;;;;;;;6.10;5.60;;;15.90;99.90;;;;;;5043478;28;20273;-61
2021/09/18 04:53:09;;;;;;;7.70;5.80;;;16.00;99.90;;;;;;5043848;28;20188;-62
2021/09/18 04:55:35;;;;;;;7.07;6.20;;;15.90;99.90;;;;;;5041716;28;20737;-61
2021/09/18 04:58:01;;;;;;;6.03;5.40;;;16.00;99.90;;;;;;5042815;28;20264;-61
2021/09/18 05:00:26;;;;;;;6.40;5.80;;;15.70;99.90;;;;;;5041572;28;20188;-61
2021/09/18 05:02:52;;;;;;;10.03;5.67;;;15.60;99.90;;;;;;5043627;28;20223;-62
2021/09/18 05:05:17;;;;;;;7.77;6.90;;;15.50;99.90;;;;;;5040181;28;20648;-62
2021/09/18 05:07:43;;;;;;;8.00;6.33;;;15.50;99.90;;;;;;5043560;28;20632;-61
2021/09/18 05:10:09;;;;;;;7.33;5.90;;;15.70;99.90;;;;;;5025560;28;20577;-62
2021/09/18 05:12:35;;;;;;;6.30;5.70;;;15.80;99.90;;;;;;5043174;28;20188;-62
2021/09/18 05:15:01;;;;;;;7.10;6.30;;;15.90;99.90;;;;;;5042294;28;20423;-62
2021/09/18 05:17:26;;;;;;;6.37;5.73;;;15.90;99.90;;;;;;5043795;28;21013;-61
2021/09/18 05:19:52;;;;;;;6.53;5.90;;;15.90;99.90;;;;;;5041997;28;20556;-61
2021/09/18 05:22:18;;;;;;;6.60;5.87;;;15.70;99.90;;;;;;5040556;28;20195;-61
2021/09/18 05:24:43;;;;;;;6.73;5.80;;;15.30;99.90;;;;;;5042890;28;20184;-61
2021/09/18 05:27:09;;;;;;;6.63;6.03;;;15.50;99.90;;;;;;5041636;28;20249;-61
2021/09/18 05:29:35;;;;;;;13.30;6.00;;;15.70;99.90;;;;;;5043479;28;20215;-62
2021/09/18 05:32:00;;;;;;;5.73;5.20;;;15.70;99.90;;;;;;5042848;28;20199;-62
2021/09/18 05:34:26;;;;;;;6.70;6.10;;;15.50;99.90;;;;;;5040375;28;20198;-62
2021/09/18 05:36:51;;;;;;;6.37;5.77;;;15.60;99.90;;;;;;5026863;28;20682;-62
2021/09/18 05:39:17;;;;;;;7.27;6.63;;;15.80;99.90;;;;;;5041753;28;20249;-62
2021/09/18 05:41:43;;;;;;;6.77;6.07;;;15.80;99.90;;;;;;5025254;28;20188;-62
2021/09/18 05:44:10;;;;;;;7.40;5.53;;;15.90;99.90;;;;;;5042935;28;20192;-62
2021/09/18 05:46:35;;;;;;;7.13;5.90;;;15.90;99.90;;;;;;5043028;28;20307;-62
2021/09/18 05:49:01;;;;;;;7.00;5.60;;;16.00;99.90;;;;;;5043315;28;20553;-62
2021/09/18 05:51:27;;;;;;;6.50;5.90;;;16.00;99.90;;;;;;5043022;28;20184;-62
2021/09/18 05:53:52;;;;;;;9.23;5.70;;;16.10;99.90;;;;;;5040933;28;20188;-61
2021/09/18 05:56:18;;;;;;;7.90;6.13;;;16.10;99.90;;;;;;5042754;28;20611;-63
2021/09/18 05:58:43;;;;;;;5.80;5.30;;;16.20;99.90;;;;;;5043168;28;20241;-61
2021/09/18 06:01:09;;;;;;;6.37;5.77;;;16.20;99.90;;;;;;5042555;28;20258;-62
2021/09/18 06:03:35;;;;;;;5.83;5.33;;;15.70;99.90;;;;;;5046839;28;20188;-61
2021/09/18 06:06:01;;;;;;;5.53;5.00;;;15.80;99.90;;;;;;5043831;28;20196;-61
2021/09/18 06:08:28;;;;;;;7.13;5.93;;;15.90;99.90;;;;;;5046368;28;20843;-62
2021/09/18 06:10:53;;;;;;;6.50;5.90;;;15.80;99.90;;;;;;5041043;28;20192;-62
2021/09/18 06:13:19;;;;;;;10.53;5.40;;;15.90;99.90;;;;;;5042687;28;20428;-61
2021/09/18 06:15:45;;;;;;;6.10;5.37;;;15.80;99.90;;;;;;5023988;28;20622;-61
2021/09/18 06:18:10;;;;;;;6.90;5.30;;;15.90;99.90;;;;;;5041342;28;20247;-62
2021/09/18 06:20:36;;;;;;;6.00;5.50;;;15.80;99.90;;;;;;5043257;28;20235;-62
2021/09/18 06:23:02;;;;;;;6.63;5.60;;;15.90;99.90;;;;;;5042518;28;20675;-63
2021/09/18 06:25:27;;;;;;;7.13;5.50;;;15.70;99.90;;;;;;5045670;28;20199;-62
2021/09/18 06:27:53;;;;;;;6.63;5.53;;;15.80;99.90;;;;;;5043649;28;20250;-62
2021/09/18 06:30:19;;;;;;;6.73;6.03;;;15.90;99.90;;;;;;5013447;28;20219;-63
2021/09/18 06:32:44;;;;;;;6.10;5.23;;;16.00;99.90;;;;;;5045916;28;20179;-61
2021/09/18 06:35:10;;;;;;;7.70;5.77;;;15.80;99.90;;;;;;5046034;28;20196;-61
2021/09/18 06:37:43;;;;;;;6.27;5.67;;;16.00;99.90;;;;;;5047961;28;20207;-62
2021/09/18 06:40:11;;;;;;;6.07;5.03;;;16.00;99.90;;;;;;5047206;28;20195;-61
2021/09/18 06:42:36;;;;;;;6.03;5.30;;;16.10;99.90;;;;;;5046611;28;20445;-61
2021/09/18 06:45:02;;;;;;;6.00;5.30;;;16.20;99.90;;;;;;5043985;28;20436;-61
2021/09/18 06:47:28;;;;;;;6.47;5.10;;;16.10;99.90;;;;;;5047417;28;20196;-61
2021/09/18 06:49:53;;;;;;;6.80;6.13;;;16.10;99.90;;;;;;5045435;28;20337;-64
2021/09/18 06:52:19;;;;;;;6.50;5.90;;;16.20;99.90;;;;;;5043972;28;20190;-61
2021/09/18 06:54:45;;;;;;;5.90;5.40;;;16.20;99.90;;;;;;5025002;28;20187;-62
2021/09/18 06:57:11;;;;;;;6.00;5.40;;;16.20;99.90;;;;;;5026919;28;20699;-62
2021/09/18 06:59:40;;;;;;;6.13;5.53;;;16.30;99.90;;;;;;5044055;28;20223;-62
2021/09/18 07:02:08;;;;;;;6.77;5.93;;;16.40;99.90;;;;;;5044154;28;20575;-61
2021/09/18 07:04:34;;;;;;;7.10;6.50;;;16.50;99.90;;;;;;5043339;28;20452;-61
2021/09/18 07:07:00;;;;;;;13.20;11.80;;;16.40;99.90;;;;;;5043802;28;20458;-61
2021/09/18 07:09:25;;;;;;;11.07;6.43;;;16.50;99.90;;;;;;5045599;28;20508;-61
2021/09/18 07:11:51;;;;;;;6.50;5.90;;;16.50;99.90;;;;;;5045478;28;20294;-62
2021/09/18 07:14:16;;;;;;;6.10;5.50;;;16.50;99.90;;;;;;5025800;28;20191;-61
2021/09/18 07:16:42;;;;;;;6.60;5.20;;;16.50;99.90;;;;;;5044148;28;20763;-61
2021/09/18 07:19:08;;;;;;;7.10;4.77;;;16.60;99.90;;;;;;5026589;28;20200;-62
2021/09/18 07:21:33;;;;;;;5.43;4.97;;;16.70;99.90;;;;;;5046413;28;20191;-63
2021/09/18 07:23:59;;;;;;;5.67;5.07;;;16.70;99.90;;;;;;5047463;28;20218;-61
2021/09/18 07:26:25;;;;;;;7.50;5.90;;;16.80;99.90;;;;;;5044469;28;20212;-61
2021/09/18 07:28:50;;;;;;;5.37;4.87;;;16.80;99.90;;;;;;5043831;28;20692;-61
2021/09/18 07:31:16;;;;;;;7.33;6.63;;;16.70;99.90;;;;;;5028001;28;20721;-61
2021/09/18 07:33:41;;;;;;;9.80;7.67;;;16.70;99.90;;;;;;5046128;28;20191;-63
2021/09/18 07:36:07;;;;;;;6.57;5.70;;;16.80;99.90;;;;;;5044214;28;20202;-61
2021/09/18 07:38:33;;;;;;;6.03;5.33;;;16.80;99.90;;;;;;5044558;28;20188;-62
2021/09/18 07:40:58;;;;;;;6.63;5.97;;;16.90;99.90;;;;;;5046147;28;20203;-62
2021/09/18 07:43:24;;;;;;;7.77;7.07;;;17.00;99.90;;;;;;5044746;28;20654;-62
2021/09/18 07:45:51;;;;;;;8.70;5.67;;;17.00;99.90;;;;;;5041703;28;20295;-62
2021/09/18 07:48:17;;;;;;;6.63;6.03;;;17.10;99.90;;;;;;5040473;28;20689;-62
2021/09/18 07:50:42;;;;;;;6.80;6.00;;;17.30;99.90;;;;;;5040931;28;20430;-62
2021/09/18 07:53:08;;;;;;;6.17;5.40;;;17.40;99.90;;;;;;5027621;28;20434;-65
2021/09/18 07:55:34;;;;;;;9.87;6.50;;;17.40;99.90;;;;;;5043413;28;20461;-66
2021/09/18 07:58:02;;;;;;;6.60;5.90;;;17.40;99.90;;;;;;5041494;28;20216;-65
2021/09/18 08:00:28;;;;;;;6.33;5.73;;;17.60;99.90;;;;;;5043888;28;20568;-65
2021/09/18 08:02:55;;;;;;;9.73;7.33;;;17.70;99.90;;;;;;5025357;28;20525;-65
2021/09/18 08:05:22;;;;;;;7.97;7.17;;;17.70;99.90;;;;;;5037514;28;20439;-65
2021/09/18 08:07:48;;;;;;;7.60;6.90;;;17.80;99.90;;;;;;5040135;28;20466;-66
2021/09/18 08:10:14;;;;;;;7.00;6.30;;;17.80;99.90;;;;;;5042965;28;20485;-65
2021/09/18 08:12:45;;;;;;;7.73;6.70;;;17.80;99.90;;;;;;5042621;28;20204;-66
2021/09/18 08:15:12;;;;;;;7.57;6.80;;;17.80;99.90;;;;;;5041718;28;20437;-65
2021/09/18 08:17:39;;;;;;;7.80;6.60;;;17.70;99.90;;;;;;5043680;28;21439;-65
2021/09/18 08:20:05;;;;;;;7.97;7.23;;;17.90;99.90;;;;;;5027261;28;20450;-65
2021/09/18 08:22:31;;;;;;;8.93;7.50;;;17.90;99.90;;;;;;5045293;28;20905;-66
2021/09/18 08:24:57;;;;;;;7.27;6.40;;;17.90;99.90;;;;;;5025049;28;20496;-65
2021/09/18 08:27:23;;;;;;;9.23;6.20;;;18.00;99.90;;;;;;5044348;28;20211;-65
2021/09/18 08:29:49;;;;;;;7.27;6.20;;;18.10;99.90;;;;;;5045319;28;20227;-65
2021/09/18 08:32:14;;;;;;;6.27;5.63;;;18.20;99.90;;;;;;5045509;28;20438;-65
2021/09/18 08:34:40;;;;;;;11.00;7.27;;;18.20;99.90;;;;;;5025944;28;20649;-65
2021/09/18 08:37:06;;;;;;;6.70;5.33;;;18.30;99.90;;;;;;5046136;28;20212;-65
2021/09/18 08:39:35;;;;;;;6.47;5.30;;;18.40;99.90;;;;;;5043225;28;20203;-65
2021/09/18 08:42:02;;;;;;;5.97;5.43;;;18.40;99.90;;;;;;5044105;28;20285;-66
2021/09/18 08:44:27;;;;;;;6.10;5.50;;;18.50;99.90;;;;;;5045437;28;20422;-65
2021/09/18 08:46:54;;;;;;;6.87;6.27;;;18.50;99.90;;;;;;5044858;28;20511;-66
2021/09/18 08:49:20;;;;;;;6.70;5.77;;;18.60;99.90;;;;;;5047413;28;20768;-65
2021/09/18 08:51:46;;;;;;;6.20;5.67;;;18.60;99.90;;;;;;5043765;28;20430;-64
2021/09/18 08:54:13;;;;;;;6.20;5.27;;;18.70;99.90;;;;;;5043608;28;20499;-65
2021/09/18 08:56:39;;;;;;;5.43;4.90;;;18.70;99.90;;;;;;5045637;28;20577;-66
2021/09/18 08:59:05;;;;;;;6.13;4.53;;;18.70;99.90;;;;;;5044956;28;20452;-65
2021/09/18 09:01:33;;;;;;;5.60;5.10;;;18.70;99.90;;;;;;5041829;28;20434;-65
2021/09/18 09:04:02;;;;;;;5.73;5.13;;;18.80;99.90;;;;;;5044159;28;20427;-65
2021/09/18 09:06:41;;;;;;;6.33;4.87;;;18.90;99.90;;;;;;5041724;28;20488;-65
2021/09/18 09:09:07;;;;;;;6.10;5.50;;;19.00;99.90;;;;;;5042523;28;20883;-65
2021/09/18 09:11:32;;;;;;;5.13;4.50;;;19.00;99.90;;;;;;5046010;28;20529;-65
2021/09/18 09:14:04;;;;;;;5.67;4.77;;;19.20;99.90;;;;;;5044912;28;20438;-65
2021/09/18 09:16:32;;;;;;;5.67;5.17;;;19.30;99.90;;;;;;5045903;28;20640;-65
2021/09/18 09:18:58;;;;;;;5.73;5.20;;;19.40;99.90;;;;;;5047635;28;20421;-66
2021/09/18 09:21:29;;;;;;;6.40;4.80;;;19.50;99.90;;;;;;5044757;28;20422;-65
2021/09/18 09:24:07;;;;;;;6.10;5.50;;;19.50;99.90;;;;;;5043312;28;20881;-66
2021/09/18 09:26:35;;;;;;;5.60;5.07;;;19.50;99.90;;;;;;5044435;28;20438;-65
2021/09/18 09:29:01;;;;;;;5.30;4.80;;;19.60;99.90;;;;;;5045975;28;20466;-65
2021/09/18 09:31:28;;;;;;;6.03;5.50;;;19.70;99.90;;;;;;5044988;28;21005;-66
2021/09/18 09:34:14;;;;;;;7.90;5.87;;;19.80;99.90;;;;;;5043979;28;20194;-67
2021/09/18 09:36:48;;;;;;;6.73;5.37;;;19.90;99.90;;;;;;5046500;28;20449;-66
2021/09/18 09:39:17;;;;;;;6.27;5.67;;;19.80;99.90;;;;;;5047871;28;20430;-65
2021/09/18 09:41:48;;;;;;;6.80;6.20;;;19.80;99.90;;;;;;5047712;28;20446;-65
2021/09/18 09:44:19;;;;;;;5.43;4.93;;;19.90;99.90;;;;;;5048076;28;20426;-66
2021/09/18 09:47:09;;;;;;;5.90;5.40;;;19.90;99.90;;;;;;5048413;28;20454;-65
2021/09/18 09:49:59;;;;;;;7.00;6.27;;;20.00;99.90;;;;;;5030479;28;20462;-66
2021/09/18 09:52:30;;;;;;;6.83;6.23;;;20.10;99.90;;;;;;5030730;28;20430;-66
2021/09/18 09:55:07;;;;;;;8.17;7.37;;;20.20;99.90;;;;;;5048090;28;20461;-65
2021/09/18 09:57:33;;;;;;;5.80;5.30;;;20.20;99.90;;;;;;5049283;28;20450;-65
2021/09/18 10:00:01;;;;;;;4.10;3.80;;;20.30;99.90;;;;;;5049462;28;20500;-66
2021/09/18 10:02:27;;;;;;;4.80;4.40;;;20.40;99.90;;;;;;5046638;28;20678;-65
2021/09/18 10:04:53;;;;;;;4.93;4.43;;;20.40;99.90;;;;;;5048076;28;20453;-65
2021/09/18 10:07:19;;;;;;;4.97;4.20;;;20.50;99.90;;;;;;5047678;28;20501;-65
2021/09/18 10:09:47;;;;;;;4.10;3.70;;;20.50;99.90;;;;;;5046700;28;21007;-66
2021/09/18 10:12:14;;;;;;;5.30;4.80;;;20.60;99.90;;;;;;5049421;28;20708;-66
2021/09/18 10:14:45;;;;;;;5.03;4.50;;;20.70;99.90;;;;;;5047725;28;20423;-65
2021/09/18 10:17:11;;;;;;;4.30;3.90;;;20.80;99.90;;;;;;5046843;28;21813;-66
2021/09/18 10:24:53;;;;;;;4.20;3.80;;;20.80;99.90;;;;;;5047054;28;20492;-66
2021/09/18 10:27:22;;;;;;;4.63;4.13;;;21.00;99.90;;;;;;5049214;28;20450;-66
2021/09/18 10:29:49;;;;;;;4.50;4.10;;;21.10;99.90;;;;;;5044487;28;20836;-66
2021/09/18 10:32:16;;;;;;;5.83;4.00;;;21.10;99.90;;;;;;5048537;28;20426;-66
2021/09/18 10:34:42;;;;;;;4.17;3.47;;;21.10;99.90;;;;;;5047026;28;20411;-66
2021/09/18 10:37:32;;;;;;;4.23;3.83;;;21.20;99.90;;;;;;5044212;28;20743;-66
2021/09/18 10:40:13;;;;;;;3.30;3.00;;;21.20;99.90;;;;;;5046718;28;20780;-66
2021/09/18 10:42:43;;;;;;;6.87;5.10;;;21.30;99.90;;;;;;5047275;28;20445;-66
2021/09/18 10:45:11;;;;;;;5.60;4.00;;;21.30;99.90;;;;;;5047473;28;20506;-65
2021/09/18 10:47:38;;;;;;;4.50;4.10;;;21.40;99.90;;;;;;5046932;28;20825;-65
2021/09/18 10:50:25;;;;;;;4.20;3.80;;;21.50;99.90;;;;;;5047813;28;20457;-66
2021/09/18 10:53:11;;;;;;;6.37;5.73;;;21.50;99.90;;;;;;5046646;28;20443;-66
2021/09/18 10:55:58;;;;;;;3.40;3.10;;;21.50;99.90;;;;;;5046159;28;20472;-65
2021/09/18 10:58:25;;;;;;;3.47;3.17;;;21.60;99.90;;;;;;5046971;28;20477;-66
2021/09/18 11:01:00;;;;;;;3.60;2.60;;;21.70;99.90;;;;;;5047287;28;20451;-66
2021/09/18 11:03:43;;;;;;;3.30;3.00;;;21.70;99.90;;;;;;5047913;28;20957;-66
2021/09/18 11:06:29;;;;;;;3.63;3.33;;;21.80;99.90;;;;;;5044788;28;20615;-65
2021/09/18 11:08:54;;;;;;;4.60;4.03;;;21.80;99.90;;;;;;5043986;28;20466;-66
2021/09/18 11:11:25;;;;;;;3.93;3.53;;;21.90;99.90;;;;;;5045216;28;20430;-66
2021/09/18 11:13:56;;;;;;;3.70;3.40;;;22.00;99.90;;;;;;5044693;28;20192;-66
2021/09/18 11:16:36;;;;;;;4.50;3.00;;;22.10;99.90;;;;;;5046538;28;20881;-65
2021/09/18 11:19:10;;;;;;;3.50;3.20;;;22.00;99.90;;;;;;5044472;28;20419;-66
2021/09/18 11:21:43;;;;;;;4.80;4.40;;;22.10;99.90;;;;;;5046642;28;20441;-66
2021/09/18 11:24:14;;;;;;;3.50;3.20;;;22.10;99.90;;;;;;5046281;28;20826;-65
2021/09/18 11:26:43;;;;;;;3.90;3.60;;;22.20;99.90;;;;;;5045801;28;20823;-66
2021/09/18 11:29:22;;;;;;;3.20;2.83;;;22.30;99.90;;;;;;5045605;28;20480;-66
2021/09/18 11:32:05;;;;;;;4.43;3.27;;;22.40;99.90;;;;;;5045318;28;20434;-65
2021/09/18 11:34:45;;;;;;;3.63;3.20;;;22.50;99.90;;;;;;5044669;28;20434;-66
2021/09/18 11:37:32;;;;;;;3.53;3.23;;;22.70;99.90;;;;;;5044657;28;21053;-66
2021/09/18 11:40:06;;;;;;;3.87;3.57;;;22.80;99.90;;;;;;5045520;28;20429;-66
2021/09/18 11:42:41;;;;;;;2.97;2.77;;;22.80;99.90;;;;;;5042326;28;20418;-66
2021/09/18 11:45:07;;;;;;;3.93;3.40;;;22.90;99.90;;;;;;5044676;28;20418;-66
2021/09/18 11:47:36;;;;;;;3.87;3.47;;;23.10;99.90;;;;;;5045009;28;20504;-66
2021/09/18 11:50:19;;;;;;;7.07;3.10;;;23.10;99.90;;;;;;5043746;28;20466;-66
2021/09/18 11:52:45;;;;;;;3.50;3.20;;;23.20;99.90;;;;;;5044502;28;20434;-66
2021/09/18 11:55:32;;;;;;;4.20;3.40;;;23.40;99.90;;;;;;5045411;28;20430;-66
2021/09/18 11:58:28;;;;;;;3.40;3.10;;;23.90;99.90;;;;;;5046227;28;20450;-66
2021/09/18 12:00:55;;;;;;;3.03;2.83;;;24.30;99.90;;;;;;5043823;28;20441;-66
2021/09/18 12:03:25;;;;;;;3.40;3.10;;;25.00;99.90;;;;;;5047003;28;20422;-66
2021/09/18 12:06:02;;;;;;;4.17;3.40;;;25.40;99.90;;;;;;5042314;28;20526;-66
2021/09/18 12:08:31;;;;;;;3.33;3.03;;;26.00;99.90;;;;;;5045271;28;20462;-66
2021/09/18 12:11:07;;;;;;;3.37;3.07;;;26.40;99.90;;;;;;5046793;28;20442;-66
2021/09/18 12:13:34;;;;;;;3.33;3.03;;;26.80;99.90;;;;;;5045624;28;20442;-66
2021/09/18 12:16:02;;;;;;;3.60;3.30;;;27.40;99.90;;;;;;5046155;28;20944;-66
2021/09/18 12:18:30;;;;;;;5.13;3.80;;;27.70;99.90;;;;;;5047273;28;20422;-66
2021/09/18 12:21:15;;;;;;;3.40;3.10;;;28.10;97.40;;;;;;5044744;28;20437;-66
2021/09/18 12:24:08;;;;;;;3.70;3.40;;;28.50;96.20;;;;;;5021647;28;20447;-66
2021/09/18 12:26:39;;;;;;;3.80;3.50;;;28.70;94.80;;;;;;5043144;28;20996;-66
2021/09/18 12:29:06;;;;;;;4.03;3.70;;;28.80;94.20;;;;;;5043593;28;20788;-65
2021/09/18 12:31:32;;;;;;;4.23;3.27;;;28.90;93.70;;;;;;5043328;28;20503;-66
2021/09/18 12:34:13;;;;;;;4.43;3.57;;;29.30;92.80;;;;;;5044160;28;20422;-66
2021/09/18 12:36:39;;;;;;;3.70;3.40;;;29.40;93.90;;;;;;5043594;28;20199;-66
2021/09/18 12:39:06;;;;;;;3.73;3.40;;;29.50;92.70;;;;;;5024838;28;20446;-66
2021/09/18 12:41:35;;;;;;;3.90;3.60;;;29.50;91.50;;;;;;5045223;28;20519;-66
2021/09/18 12:44:04;;;;;;;4.43;3.40;;;29.50;88.90;;;;;;5043475;28;20431;-66
2021/09/18 12:46:42;;;;;;;4.23;3.83;;;29.60;90.70;;;;;;5045099;28;20489;-66
2021/09/18 12:49:09;;;;;;;4.03;3.73;;;29.80;87.70;;;;;;5043754;28;20488;-66
2021/09/18 12:51:37;;;;;;;3.90;3.10;;;29.60;86.90;;;;;;5046185;28;20478;-66
2021/09/18 12:54:04;;;;;;;3.80;3.20;;;29.80;84.70;;;;;;5023751;28;20950;-65